sensor_id;sensor_type;location;lat;lon;timestamp;P1;durP1;ratioP1;P2;durP2;ratioP2
17482;SDS011;8858;52.308;20.994;2022-09-24T00:00:05;24.23;;;22.00;;
17482;SDS011;8858;52.308;20.994;2022-09-24T00:02:34;22.63;;;20.43;;
17482;SDS011;8858;52.308;20.994;2022-09-24T00:12:50;47.07;;;42.70;;
17482;SDS011;8858;52.308;20.994;2022-09-24T00:15:30;55.80;;;50.53;;
17482;SDS011;8858;52.308;20.994;2022-09-24T00:18:03;53.93;;;48.67;;
17482;SDS011;8858;52.308;20.994;2022-09-24T00:20:36;62.53;;;56.47;;
17482;SDS011;8858;52.308;20.994;2022-09-24T00:23:13;59.33;;;54.00;;
17482;SDS011;8858;52.308;20.994;2022-09-24T00:26:54;53.13;;;48.27;;
17482;SDS011;8858;52.308;20.994;2022-09-24T00:29:25;51.60;;;46.73;;
17482;SDS011;8858;52.308;20.994;2022-09-24T00:31:58;52.17;;;47.10;;
17482;SDS011;8858;52.308;20.994;2022-09-24T00:34:36;49.97;;;45.20;;
17482;SDS011;8858;52.308;20.994;2022-09-24T00:37:04;48.90;;;44.00;;
17482;SDS011;8858;52.308;20.994;2022-09-24T00:39:33;44.40;;;39.77;;
17482;SDS011;8858;52.308;20.994;2022-09-24T00:42:02;44.93;;;40.37;;
17482;SDS011;8858;52.308;20.994;2022-09-24T00:47:28;43.10;;;38.80;;
17482;SDS011;8858;52.308;20.994;2022-09-24T00:50:09;41.07;;;37.20;;
17482;SDS011;8858;52.308;20.994;2022-09-24T00:52:53;40.73;;;36.80;;
17482;SDS011;8858;52.308;20.994;2022-09-24T01:09:16;26.30;;;23.70;;
17482;SDS011;8858;52.308;20.994;2022-09-24T01:14:52;26.17;;;23.37;;
17482;SDS011;8858;52.308;20.994;2022-09-24T01:17:33;26.60;;;23.90;;
17482;SDS011;8858;52.308;20.994;2022-09-24T01:21:26;26.20;;;23.47;;
17482;SDS011;8858;52.308;20.994;2022-09-24T01:24:51;25.23;;;21.20;;
17482;SDS011;8858;52.308;20.994;2022-09-24T01:27:35;24.57;;;22.07;;
17482;SDS011;8858;52.308;20.994;2022-09-24T01:30:20;23.60;;;21.13;;
17482;SDS011;8858;52.308;20.994;2022-09-24T01:33:15;22.70;;;20.23;;
17482;SDS011;8858;52.308;20.994;2022-09-24T01:36:10;22.13;;;19.53;;
17482;SDS011;8858;52.308;20.994;2022-09-24T01:39:05;19.43;;;17.43;;
17482;SDS011;8858;52.308;20.994;2022-09-24T01:46:12;21.50;;;18.17;;
17482;SDS011;8858;52.308;20.994;2022-09-24T01:48:46;20.67;;;17.37;;
17482;SDS011;8858;52.308;20.994;2022-09-24T01:54:20;17.07;;;15.27;;
17482;SDS011;8858;52.308;20.994;2022-09-24T01:57:20;17.77;;;15.87;;
17482;SDS011;8858;52.308;20.994;2022-09-24T01:59:55;16.60;;;14.80;;
17482;SDS011;8858;52.308;20.994;2022-09-24T02:02:40;16.67;;;14.50;;
17482;SDS011;8858;52.308;20.994;2022-09-24T02:05:15;16.87;;;13.70;;
17482;SDS011;8858;52.308;20.994;2022-09-24T02:07:50;14.77;;;12.53;;
17482;SDS011;8858;52.308;20.994;2022-09-24T02:10:24;15.60;;;13.90;;
17482;SDS011;8858;52.308;20.994;2022-09-24T02:13:01;15.53;;;13.03;;
17482;SDS011;8858;52.308;20.994;2022-09-24T02:15:33;14.57;;;12.33;;
17482;SDS011;8858;52.308;20.994;2022-09-24T02:18:06;14.07;;;11.87;;
17482;SDS011;8858;52.308;20.994;2022-09-24T02:20:38;15.23;;;12.20;;
17482;SDS011;8858;52.308;20.994;2022-09-24T02:23:11;17.83;;;11.87;;
17482;SDS011;8858;52.308;20.994;2022-09-24T02:25:43;13.77;;;11.97;;
17482;SDS011;8858;52.308;20.994;2022-09-24T02:28:17;15.90;;;11.03;;
17482;SDS011;8858;52.308;20.994;2022-09-24T02:30:47;13.83;;;11.33;;
17482;SDS011;8858;52.308;20.994;2022-09-24T02:33:23;15.80;;;11.63;;
17482;SDS011;8858;52.308;20.994;2022-09-24T02:36:13;14.70;;;11.40;;
17482;SDS011;8858;52.308;20.994;2022-09-24T02:38:42;14.13;;;11.00;;
17482;SDS011;8858;52.308;20.994;2022-09-24T02:41:12;16.63;;;11.83;;
17482;SDS011;8858;52.308;20.994;2022-09-24T02:43:41;16.23;;;12.27;;
17482;SDS011;8858;52.308;20.994;2022-09-24T02:46:09;15.60;;;11.77;;
17482;SDS011;8858;52.308;20.994;2022-09-24T02:48:39;16.23;;;11.37;;
17482;SDS011;8858;52.308;20.994;2022-09-24T02:51:08;14.40;;;10.53;;
17482;SDS011;8858;52.308;20.994;2022-09-24T02:53:37;12.30;;;10.60;;
17482;SDS011;8858;52.308;20.994;2022-09-24T02:56:07;12.40;;;10.37;;
17482;SDS011;8858;52.308;20.994;2022-09-24T02:58:36;12.63;;;10.07;;
17482;SDS011;8858;52.308;20.994;2022-09-24T03:01:06;13.23;;;10.90;;
17482;SDS011;8858;52.308;20.994;2022-09-24T03:03:34;12.47;;;10.50;;
17482;SDS011;8858;52.308;20.994;2022-09-24T03:06:06;13.97;;;10.50;;
17482;SDS011;8858;52.308;20.994;2022-09-24T03:08:38;15.17;;;10.90;;
17482;SDS011;8858;52.308;20.994;2022-09-24T03:11:10;16.50;;;10.80;;
17482;SDS011;8858;52.308;20.994;2022-09-24T03:13:44;11.80;;;9.80;;
17482;SDS011;8858;52.308;20.994;2022-09-24T03:16:13;13.33;;;10.90;;
17482;SDS011;8858;52.308;20.994;2022-09-24T03:19:12;14.33;;;11.87;;
17482;SDS011;8858;52.308;20.994;2022-09-24T03:21:46;14.30;;;12.10;;
17482;SDS011;8858;52.308;20.994;2022-09-24T03:24:16;13.90;;;11.20;;
17482;SDS011;8858;52.308;20.994;2022-09-24T03:26:44;14.20;;;10.10;;
17482;SDS011;8858;52.308;20.994;2022-09-24T03:29:13;11.77;;;10.57;;
17482;SDS011;8858;52.308;20.994;2022-09-24T03:32:29;16.23;;;10.57;;
17482;SDS011;8858;52.308;20.994;2022-09-24T03:35:04;14.47;;;10.30;;
17482;SDS011;8858;52.308;20.994;2022-09-24T03:37:35;12.87;;;10.17;;
17482;SDS011;8858;52.308;20.994;2022-09-24T03:40:06;11.87;;;10.50;;
17482;SDS011;8858;52.308;20.994;2022-09-24T03:42:35;12.93;;;11.23;;
17482;SDS011;8858;52.308;20.994;2022-09-24T03:45:04;16.63;;;10.97;;
17482;SDS011;8858;52.308;20.994;2022-09-24T03:47:34;13.50;;;11.03;;
17482;SDS011;8858;52.308;20.994;2022-09-24T03:50:02;15.27;;;12.00;;
17482;SDS011;8858;52.308;20.994;2022-09-24T03:52:36;13.57;;;10.93;;
17482;SDS011;8858;52.308;20.994;2022-09-24T03:55:04;14.40;;;10.83;;
17482;SDS011;8858;52.308;20.994;2022-09-24T03:57:33;14.60;;;11.10;;
17482;SDS011;8858;52.308;20.994;2022-09-24T04:00:03;13.47;;;10.53;;
17482;SDS011;8858;52.308;20.994;2022-09-24T04:02:37;14.17;;;10.80;;
17482;SDS011;8858;52.308;20.994;2022-09-24T04:05:08;78.63;;;56.07;;
17482;SDS011;8858;52.308;20.994;2022-09-24T04:07:38;35.73;;;24.90;;
17482;SDS011;8858;52.308;20.994;2022-09-24T04:10:10;17.77;;;15.07;;
17482;SDS011;8858;52.308;20.994;2022-09-24T04:12:39;17.30;;;13.97;;
17482;SDS011;8858;52.308;20.994;2022-09-24T04:15:39;18.13;;;13.67;;
17482;SDS011;8858;52.308;20.994;2022-09-24T04:18:09;18.83;;;14.00;;
17482;SDS011;8858;52.308;20.994;2022-09-24T04:20:39;22.13;;;15.70;;
17482;SDS011;8858;52.308;20.994;2022-09-24T04:23:15;24.97;;;16.00;;
17482;SDS011;8858;52.308;20.994;2022-09-24T04:25:43;23.17;;;16.53;;
17482;SDS011;8858;52.308;20.994;2022-09-24T04:28:12;29.53;;;23.60;;
17482;SDS011;8858;52.308;20.994;2022-09-24T04:30:44;22.60;;;17.27;;
17482;SDS011;8858;52.308;20.994;2022-09-24T04:33:13;21.20;;;16.97;;
17482;SDS011;8858;52.308;20.994;2022-09-24T04:35:41;25.40;;;16.47;;
17482;SDS011;8858;52.308;20.994;2022-09-24T04:38:09;19.77;;;15.80;;
17482;SDS011;8858;52.308;20.994;2022-09-24T04:40:40;20.23;;;15.60;;
17482;SDS011;8858;52.308;20.994;2022-09-24T04:43:12;20.67;;;16.70;;
17482;SDS011;8858;52.308;20.994;2022-09-24T04:45:41;22.10;;;16.90;;
17482;SDS011;8858;52.308;20.994;2022-09-24T04:48:11;20.87;;;16.80;;
17482;SDS011;8858;52.308;20.994;2022-09-24T04:50:40;20.73;;;15.87;;
17482;SDS011;8858;52.308;20.994;2022-09-24T04:53:12;19.93;;;17.03;;
17482;SDS011;8858;52.308;20.994;2022-09-24T04:55:42;23.10;;;17.67;;
17482;SDS011;8858;52.308;20.994;2022-09-24T04:58:10;22.17;;;17.20;;
17482;SDS011;8858;52.308;20.994;2022-09-24T05:00:38;19.77;;;15.97;;
17482;SDS011;8858;52.308;20.994;2022-09-24T05:03:08;20.13;;;15.97;;
17482;SDS011;8858;52.308;20.994;2022-09-24T05:05:36;21.50;;;15.97;;
17482;SDS011;8858;52.308;20.994;2022-09-24T05:08:08;19.60;;;16.50;;
17482;SDS011;8858;52.308;20.994;2022-09-24T05:10:37;22.17;;;16.80;;
17482;SDS011;8858;52.308;20.994;2022-09-24T05:13:07;21.17;;;16.30;;
17482;SDS011;8858;52.308;20.994;2022-09-24T05:15:37;20.47;;;15.97;;
17482;SDS011;8858;52.308;20.994;2022-09-24T05:18:08;25.87;;;17.90;;
17482;SDS011;8858;52.308;20.994;2022-09-24T05:20:37;20.80;;;16.57;;
17482;SDS011;8858;52.308;20.994;2022-09-24T05:23:05;19.57;;;16.80;;
17482;SDS011;8858;52.308;20.994;2022-09-24T05:25:33;19.27;;;15.87;;
17482;SDS011;8858;52.308;20.994;2022-09-24T05:28:24;23.50;;;16.97;;
17482;SDS011;8858;52.308;20.994;2022-09-24T05:30:55;20.10;;;16.33;;
17482;SDS011;8858;52.308;20.994;2022-09-24T05:33:23;21.80;;;16.70;;
17482;SDS011;8858;52.308;20.994;2022-09-24T05:35:52;26.93;;;18.10;;
17482;SDS011;8858;52.308;20.994;2022-09-24T05:38:21;23.07;;;17.97;;
17482;SDS011;8858;52.308;20.994;2022-09-24T05:40:50;22.00;;;16.80;;
17482;SDS011;8858;52.308;20.994;2022-09-24T05:43:21;25.50;;;18.00;;
17482;SDS011;8858;52.308;20.994;2022-09-24T05:45:50;24.43;;;16.87;;
17482;SDS011;8858;52.308;20.994;2022-09-24T05:48:19;29.07;;;17.60;;
17482;SDS011;8858;52.308;20.994;2022-09-24T05:50:49;26.27;;;18.17;;
17482;SDS011;8858;52.308;20.994;2022-09-24T05:53:22;25.83;;;18.00;;
17482;SDS011;8858;52.308;20.994;2022-09-24T05:55:53;23.93;;;18.70;;
17482;SDS011;8858;52.308;20.994;2022-09-24T05:58:21;26.23;;;18.67;;
17482;SDS011;8858;52.308;20.994;2022-09-24T06:00:51;27.00;;;19.47;;
17482;SDS011;8858;52.308;20.994;2022-09-24T06:03:21;26.20;;;19.60;;
17482;SDS011;8858;52.308;20.994;2022-09-24T06:05:49;27.60;;;18.67;;
17482;SDS011;8858;52.308;20.994;2022-09-24T06:08:21;26.23;;;19.50;;
17482;SDS011;8858;52.308;20.994;2022-09-24T06:10:50;23.90;;;19.13;;
17482;SDS011;8858;52.308;20.994;2022-09-24T06:13:19;32.57;;;19.63;;
17482;SDS011;8858;52.308;20.994;2022-09-24T06:15:52;24.33;;;18.53;;
17482;SDS011;8858;52.308;20.994;2022-09-24T06:18:26;27.63;;;18.87;;
17482;SDS011;8858;52.308;20.994;2022-09-24T06:20:54;27.53;;;19.53;;
17482;SDS011;8858;52.308;20.994;2022-09-24T06:23:29;38.33;;;22.37;;
17482;SDS011;8858;52.308;20.994;2022-09-24T06:25:59;50.00;;;21.93;;
17482;SDS011;8858;52.308;20.994;2022-09-24T06:28:27;38.07;;;21.27;;
17482;SDS011;8858;52.308;20.994;2022-09-24T06:30:57;34.53;;;19.67;;
17482;SDS011;8858;52.308;20.994;2022-09-24T06:33:32;28.77;;;18.17;;
17482;SDS011;8858;52.308;20.994;2022-09-24T06:36:01;27.80;;;19.13;;
17482;SDS011;8858;52.308;20.994;2022-09-24T06:38:34;25.10;;;17.60;;
17482;SDS011;8858;52.308;20.994;2022-09-24T06:41:04;21.37;;;17.13;;
17482;SDS011;8858;52.308;20.994;2022-09-24T06:43:35;29.17;;;17.13;;
17482;SDS011;8858;52.308;20.994;2022-09-24T06:46:49;26.47;;;16.90;;
17482;SDS011;8858;52.308;20.994;2022-09-24T06:49:23;23.70;;;15.87;;
17482;SDS011;8858;52.308;20.994;2022-09-24T06:51:59;23.43;;;15.07;;
17482;SDS011;8858;52.308;20.994;2022-09-24T06:54:30;27.30;;;15.73;;
17482;SDS011;8858;52.308;20.994;2022-09-24T06:56:58;24.00;;;15.63;;
17482;SDS011;8858;52.308;20.994;2022-09-24T06:59:26;25.53;;;15.47;;
17482;SDS011;8858;52.308;20.994;2022-09-24T07:01:57;21.13;;;14.27;;
17482;SDS011;8858;52.308;20.994;2022-09-24T07:04:25;20.17;;;15.00;;
17482;SDS011;8858;52.308;20.994;2022-09-24T07:06:54;20.33;;;14.37;;
17482;SDS011;8858;52.308;20.994;2022-09-24T07:09:43;20.90;;;13.97;;
17482;SDS011;8858;52.308;20.994;2022-09-24T07:12:11;20.03;;;13.97;;
17482;SDS011;8858;52.308;20.994;2022-09-24T07:14:40;26.97;;;14.33;;
17482;SDS011;8858;52.308;20.994;2022-09-24T07:17:10;22.17;;;13.80;;
17482;SDS011;8858;52.308;20.994;2022-09-24T07:19:42;21.90;;;14.07;;
17482;SDS011;8858;52.308;20.994;2022-09-24T07:22:11;22.50;;;13.93;;
17482;SDS011;8858;52.308;20.994;2022-09-24T07:24:40;18.73;;;13.00;;
17482;SDS011;8858;52.308;20.994;2022-09-24T07:27:09;19.83;;;13.10;;
17482;SDS011;8858;52.308;20.994;2022-09-24T07:29:37;20.17;;;12.77;;
17482;SDS011;8858;52.308;20.994;2022-09-24T07:32:10;21.00;;;11.00;;
17482;SDS011;8858;52.308;20.994;2022-09-24T07:34:39;18.83;;;11.63;;
17482;SDS011;8858;52.308;20.994;2022-09-24T07:37:07;18.37;;;11.07;;
17482;SDS011;8858;52.308;20.994;2022-09-24T07:39:36;18.67;;;11.57;;
17482;SDS011;8858;52.308;20.994;2022-09-24T07:42:05;18.50;;;11.60;;
17482;SDS011;8858;52.308;20.994;2022-09-24T07:44:37;14.97;;;10.77;;
17482;SDS011;8858;52.308;20.994;2022-09-24T07:47:05;20.67;;;10.73;;
17482;SDS011;8858;52.308;20.994;2022-09-24T07:49:46;19.23;;;9.90;;
17482;SDS011;8858;52.308;20.994;2022-09-24T07:52:14;33.37;;;10.67;;
17482;SDS011;8858;52.308;20.994;2022-09-24T07:54:43;15.80;;;9.50;;
17482;SDS011;8858;52.308;20.994;2022-09-24T07:57:12;15.23;;;8.67;;
17482;SDS011;8858;52.308;20.994;2022-09-24T07:59:40;13.00;;;8.57;;
17482;SDS011;8858;52.308;20.994;2022-09-24T08:02:13;17.47;;;7.77;;
17482;SDS011;8858;52.308;20.994;2022-09-24T08:04:43;11.67;;;7.90;;
17482;SDS011;8858;52.308;20.994;2022-09-24T08:07:12;10.83;;;7.43;;
17482;SDS011;8858;52.308;20.994;2022-09-24T08:09:41;14.10;;;8.30;;
17482;SDS011;8858;52.308;20.994;2022-09-24T08:12:09;10.13;;;7.10;;
17482;SDS011;8858;52.308;20.994;2022-09-24T08:14:38;13.00;;;6.17;;
17482;SDS011;8858;52.308;20.994;2022-09-24T08:17:07;7.47;;;4.77;;
17482;SDS011;8858;52.308;20.994;2022-09-24T08:19:36;12.10;;;5.37;;
17482;SDS011;8858;52.308;20.994;2022-09-24T08:22:05;8.67;;;4.90;;
17482;SDS011;8858;52.308;20.994;2022-09-24T08:24:35;10.60;;;5.40;;
17482;SDS011;8858;52.308;20.994;2022-09-24T08:27:09;8.97;;;5.83;;
17482;SDS011;8858;52.308;20.994;2022-09-24T08:29:42;8.60;;;5.23;;
17482;SDS011;8858;52.308;20.994;2022-09-24T08:32:11;8.70;;;5.63;;
17482;SDS011;8858;52.308;20.994;2022-09-24T08:34:45;7.10;;;4.47;;
17482;SDS011;8858;52.308;20.994;2022-09-24T08:37:19;6.07;;;4.70;;
17482;SDS011;8858;52.308;20.994;2022-09-24T08:39:54;4.37;;;3.03;;
17482;SDS011;8858;52.308;20.994;2022-09-24T08:42:49;2.77;;;2.50;;
17482;SDS011;8858;52.308;20.994;2022-09-24T08:45:28;3.90;;;2.30;;
17482;SDS011;8858;52.308;20.994;2022-09-24T08:48:31;6.00;;;3.40;;
17482;SDS011;8858;52.308;20.994;2022-09-24T08:51:04;4.73;;;3.57;;
17482;SDS011;8858;52.308;20.994;2022-09-24T08:53:41;5.27;;;3.63;;
17482;SDS011;8858;52.308;20.994;2022-09-24T08:56:28;6.97;;;4.10;;
17482;SDS011;8858;52.308;20.994;2022-09-24T08:59:09;8.17;;;4.37;;
17482;SDS011;8858;52.308;20.994;2022-09-24T09:01:51;7.33;;;4.23;;
17482;SDS011;8858;52.308;20.994;2022-09-24T09:04:32;6.27;;;3.83;;
17482;SDS011;8858;52.308;20.994;2022-09-24T09:07:34;3.93;;;2.90;;
17482;SDS011;8858;52.308;20.994;2022-09-24T09:11:00;4.47;;;3.57;;
17482;SDS011;8858;52.308;20.994;2022-09-24T09:13:37;4.90;;;3.53;;
17482;SDS011;8858;52.308;20.994;2022-09-24T09:16:16;3.00;;;2.60;;
17482;SDS011;8858;52.308;20.994;2022-09-24T09:19:13;3.20;;;2.70;;
17482;SDS011;8858;52.308;20.994;2022-09-24T09:21:46;3.83;;;3.43;;
17482;SDS011;8858;52.308;20.994;2022-09-24T09:24:20;5.67;;;3.57;;
17482;SDS011;8858;52.308;20.994;2022-09-24T09:26:53;6.57;;;3.47;;
17482;SDS011;8858;52.308;20.994;2022-09-24T09:29:25;4.53;;;3.60;;
17482;SDS011;8858;52.308;20.994;2022-09-24T09:31:59;5.13;;;3.83;;
17482;SDS011;8858;52.308;20.994;2022-09-24T09:34:43;6.37;;;3.60;;
17482;SDS011;8858;52.308;20.994;2022-09-24T09:37:22;5.87;;;3.80;;
17482;SDS011;8858;52.308;20.994;2022-09-24T09:40:00;4.00;;;3.53;;
17482;SDS011;8858;52.308;20.994;2022-09-24T09:42:36;4.87;;;3.20;;
17482;SDS011;8858;52.308;20.994;2022-09-24T09:45:14;5.67;;;3.50;;
17482;SDS011;8858;52.308;20.994;2022-09-24T09:47:54;6.93;;;3.60;;
17482;SDS011;8858;52.308;20.994;2022-09-24T09:50:25;4.70;;;3.20;;
17482;SDS011;8858;52.308;20.994;2022-09-24T09:52:59;4.80;;;3.40;;
17482;SDS011;8858;52.308;20.994;2022-09-24T09:55:29;4.30;;;3.30;;
17482;SDS011;8858;52.308;20.994;2022-09-24T09:58:08;7.27;;;3.40;;
17482;SDS011;8858;52.308;20.994;2022-09-24T10:00:44;5.80;;;3.00;;
17482;SDS011;8858;52.308;20.994;2022-09-24T10:03:22;4.20;;;3.27;;
17482;SDS011;8858;52.308;20.994;2022-09-24T10:05:53;7.13;;;3.20;;
17482;SDS011;8858;52.308;20.994;2022-09-24T10:08:26;5.17;;;3.23;;
17482;SDS011;8858;52.308;20.994;2022-09-24T10:10:55;6.87;;;2.67;;
17482;SDS011;8858;52.308;20.994;2022-09-24T10:13:27;5.20;;;2.50;;
17482;SDS011;8858;52.308;20.994;2022-09-24T10:15:58;4.00;;;2.17;;
17482;SDS011;8858;52.308;20.994;2022-09-24T10:18:30;4.60;;;2.37;;
17482;SDS011;8858;52.308;20.994;2022-09-24T10:21:03;5.57;;;2.20;;
17482;SDS011;8858;52.308;20.994;2022-09-24T10:23:37;4.70;;;2.40;;
17482;SDS011;8858;52.308;20.994;2022-09-24T10:26:12;3.57;;;2.60;;
17482;SDS011;8858;52.308;20.994;2022-09-24T10:28:45;2.63;;;2.20;;
17482;SDS011;8858;52.308;20.994;2022-09-24T10:31:35;4.57;;;2.10;;
17482;SDS011;8858;52.308;20.994;2022-09-24T10:34:16;2.77;;;2.13;;
17482;SDS011;8858;52.308;20.994;2022-09-24T10:36:49;4.10;;;2.15;;
17482;SDS011;8858;52.308;20.994;2022-09-24T10:39:21;5.83;;;2.10;;
17482;SDS011;8858;52.308;20.994;2022-09-24T10:41:51;4.10;;;2.63;;
17482;SDS011;8858;52.308;20.994;2022-09-24T10:44:23;6.75;;;2.60;;
17482;SDS011;8858;52.308;20.994;2022-09-24T10:47:01;2.70;;;1.92;;
17482;SDS011;8858;52.308;20.994;2022-09-24T10:49:44;2.33;;;2.10;;
17482;SDS011;8858;52.308;20.994;2022-09-24T10:52:31;4.22;;;2.33;;
17482;SDS011;8858;52.308;20.994;2022-09-24T10:55:29;2.00;;;1.83;;
17482;SDS011;8858;52.308;20.994;2022-09-24T10:58:08;3.75;;;2.28;;
17482;SDS011;8858;52.308;20.994;2022-09-24T11:00:58;2.33;;;2.10;;
17482;SDS011;8858;52.308;20.994;2022-09-24T11:03:45;2.00;;;1.73;;
17482;SDS011;8858;52.308;20.994;2022-09-24T11:06:39;2.40;;;2.20;;
17482;SDS011;8858;52.308;20.994;2022-09-24T11:09:21;2.15;;;1.95;;
17482;SDS011;8858;52.308;20.994;2022-09-24T11:11:58;1.67;;;1.58;;
17482;SDS011;8858;52.308;20.994;2022-09-24T11:14:40;1.80;;;1.70;;
17482;SDS011;8858;52.308;20.994;2022-09-24T11:17:57;1.70;;;1.60;;
17482;SDS011;8858;52.308;20.994;2022-09-24T11:20:46;4.68;;;1.95;;
17482;SDS011;8858;52.308;20.994;2022-09-24T11:26:19;1.88;;;1.77;;
17482;SDS011;8858;52.308;20.994;2022-09-24T11:28:59;3.38;;;1.70;;
17482;SDS011;8858;52.308;20.994;2022-09-24T11:31:50;2.00;;;1.80;;
17482;SDS011;8858;52.308;20.994;2022-09-24T11:34:35;1.65;;;1.55;;
17482;SDS011;8858;52.308;20.994;2022-09-24T11:37:20;1.80;;;1.70;;
17482;SDS011;8858;52.308;20.994;2022-09-24T11:39:59;1.88;;;1.77;;
17482;SDS011;8858;52.308;20.994;2022-09-24T11:42:44;4.18;;;2.80;;
17482;SDS011;8858;52.308;20.994;2022-09-24T11:45:39;2.83;;;2.50;;
17482;SDS011;8858;52.308;20.994;2022-09-24T11:51:19;4.00;;;2.60;;
17482;SDS011;8858;52.308;20.994;2022-09-24T11:54:01;3.53;;;3.20;;
17482;SDS011;8858;52.308;20.994;2022-09-24T11:56:35;3.33;;;2.70;;
17482;SDS011;8858;52.308;20.994;2022-09-24T11:59:12;3.85;;;2.60;;
17482;SDS011;8858;52.308;20.994;2022-09-24T12:01:49;5.20;;;2.90;;
17482;SDS011;8858;52.308;20.994;2022-09-24T12:04:23;2.80;;;2.60;;
17482;SDS011;8858;52.308;20.994;2022-09-24T12:06:57;4.20;;;2.72;;
17482;SDS011;8858;52.308;20.994;2022-09-24T12:09:34;3.92;;;2.80;;
17482;SDS011;8858;52.308;20.994;2022-09-24T12:12:06;2.80;;;2.58;;
17482;SDS011;8858;52.308;20.994;2022-09-24T12:14:42;2.85;;;2.60;;
17482;SDS011;8858;52.308;20.994;2022-09-24T12:17:16;3.17;;;2.20;;
17482;SDS011;8858;52.308;20.994;2022-09-24T12:19:50;3.13;;;2.10;;
17482;SDS011;8858;52.308;20.994;2022-09-24T12:22:22;2.50;;;2.10;;
17482;SDS011;8858;52.308;20.994;2022-09-24T12:24:55;2.42;;;1.98;;
17482;SDS011;8858;52.308;20.994;2022-09-24T12:27:27;5.82;;;1.90;;
17482;SDS011;8858;52.308;20.994;2022-09-24T12:30:03;1.70;;;1.60;;
17482;SDS011;8858;52.308;20.994;2022-09-24T12:32:57;2.45;;;1.90;;
17482;SDS011;8858;52.308;20.994;2022-09-24T12:35:44;1.95;;;1.80;;
17482;SDS011;8858;52.308;20.994;2022-09-24T12:38:22;2.13;;;1.52;;
17482;SDS011;8858;52.308;20.994;2022-09-24T12:41:16;6.10;;;1.90;;
17482;SDS011;8858;52.308;20.994;2022-09-24T12:43:58;3.20;;;1.70;;
17482;SDS011;8858;52.308;20.994;2022-09-24T12:46:32;1.73;;;1.38;;
17482;SDS011;8858;52.308;20.994;2022-09-24T12:49:16;1.95;;;1.55;;
17482;SDS011;8858;52.308;20.994;2022-09-24T12:51:50;1.52;;;1.50;;
17482;SDS011;8858;52.308;20.994;2022-09-24T12:54:21;1.80;;;1.70;;
17482;SDS011;8858;52.308;20.994;2022-09-24T12:57:04;2.15;;;1.50;;
17482;SDS011;8858;52.308;20.994;2022-09-24T12:59:45;5.05;;;4.55;;
17482;SDS011;8858;52.308;20.994;2022-09-24T13:02:16;3.45;;;3.15;;
17482;SDS011;8858;52.308;20.994;2022-09-24T13:04:49;1.40;;;1.27;;
17482;SDS011;8858;52.308;20.994;2022-09-24T13:07:32;1.10;;;1.10;;
17482;SDS011;8858;52.308;20.994;2022-09-24T13:10:09;1.35;;;1.25;;
17482;SDS011;8858;52.308;20.994;2022-09-24T13:12:47;1.83;;;1.65;;
17482;SDS011;8858;52.308;20.994;2022-09-24T13:15:22;1.55;;;1.30;;
17482;SDS011;8858;52.308;20.994;2022-09-24T13:18:02;3.28;;;1.67;;
17482;SDS011;8858;52.308;20.994;2022-09-24T13:24:09;1.67;;;1.30;;
17482;SDS011;8858;52.308;20.994;2022-09-24T13:26:40;1.30;;;1.25;;
17482;SDS011;8858;52.308;20.994;2022-09-24T13:29:22;1.30;;;1.10;;
17482;SDS011;8858;52.308;20.994;2022-09-24T13:31:54;1.48;;;1.38;;
17482;SDS011;8858;52.308;20.994;2022-09-24T13:34:59;1.40;;;1.30;;
17482;SDS011;8858;52.308;20.994;2022-09-24T13:37:51;2.47;;;1.10;;
17482;SDS011;8858;52.308;20.994;2022-09-24T13:40:26;1.40;;;1.20;;
17482;SDS011;8858;52.308;20.994;2022-09-24T13:43:01;1.42;;;1.30;;
17482;SDS011;8858;52.308;20.994;2022-09-24T13:45:37;2.20;;;1.30;;
17482;SDS011;8858;52.308;20.994;2022-09-24T13:48:12;2.15;;;1.42;;
17482;SDS011;8858;52.308;20.994;2022-09-24T13:50:47;2.45;;;1.98;;
17482;SDS011;8858;52.308;20.994;2022-09-24T13:53:19;2.53;;;2.33;;
17482;SDS011;8858;52.308;20.994;2022-09-24T13:55:56;1.10;;;1.10;;
17482;SDS011;8858;52.308;20.994;2022-09-24T13:58:27;1.85;;;1.70;;
17482;SDS011;8858;52.308;20.994;2022-09-24T14:00:58;2.35;;;1.45;;
17482;SDS011;8858;52.308;20.994;2022-09-24T14:03:34;3.72;;;1.48;;
17482;SDS011;8858;52.308;20.994;2022-09-24T14:06:08;2.05;;;1.40;;
17482;SDS011;8858;52.308;20.994;2022-09-24T14:08:39;3.03;;;1.90;;
17482;SDS011;8858;52.308;20.994;2022-09-24T14:11:13;3.00;;;2.70;;
17482;SDS011;8858;52.308;20.994;2022-09-24T14:13:44;2.15;;;1.77;;
17482;SDS011;8858;52.308;20.994;2022-09-24T14:16:18;2.22;;;2.03;;
17482;SDS011;8858;52.308;20.994;2022-09-24T14:18:59;2.45;;;2.00;;
17482;SDS011;8858;52.308;20.994;2022-09-24T14:21:30;1.70;;;1.60;;
17482;SDS011;8858;52.308;20.994;2022-09-24T14:24:02;3.65;;;1.92;;
17482;SDS011;8858;52.308;20.994;2022-09-24T14:26:34;4.43;;;1.80;;
17482;SDS011;8858;52.308;20.994;2022-09-24T14:29:07;3.72;;;2.17;;
17482;SDS011;8858;52.308;20.994;2022-09-24T14:31:42;2.95;;;1.90;;
17482;SDS011;8858;52.308;20.994;2022-09-24T14:34:17;3.25;;;1.88;;
17482;SDS011;8858;52.308;20.994;2022-09-24T14:36:54;2.60;;;2.03;;
17482;SDS011;8858;52.308;20.994;2022-09-24T14:39:28;1.90;;;1.80;;
17482;SDS011;8858;52.308;20.994;2022-09-24T14:42:00;2.00;;;1.77;;
17482;SDS011;8858;52.308;20.994;2022-09-24T14:44:37;2.20;;;2.00;;
17482;SDS011;8858;52.308;20.994;2022-09-24T14:47:23;10.77;;;8.77;;
17482;SDS011;8858;52.308;20.994;2022-09-24T14:49:58;4.22;;;3.80;;
17482;SDS011;8858;52.308;20.994;2022-09-24T14:52:40;3.55;;;1.85;;
17482;SDS011;8858;52.308;20.994;2022-09-24T14:55:14;1.65;;;1.55;;
17482;SDS011;8858;52.308;20.994;2022-09-24T14:57:44;2.60;;;1.42;;
17482;SDS011;8858;52.308;20.994;2022-09-24T15:00:23;3.15;;;1.85;;
17482;SDS011;8858;52.308;20.994;2022-09-24T15:02:56;1.70;;;1.58;;
17482;SDS011;8858;52.308;20.994;2022-09-24T15:05:28;1.80;;;1.70;;
17482;SDS011;8858;52.308;20.994;2022-09-24T15:08:08;3.47;;;1.70;;
17482;SDS011;8858;52.308;20.994;2022-09-24T15:10:57;1.40;;;1.30;;
17482;SDS011;8858;52.308;20.994;2022-09-24T15:13:28;1.70;;;1.60;;
17482;SDS011;8858;52.308;20.994;2022-09-24T15:16:02;7.30;;;1.75;;
17482;SDS011;8858;52.308;20.994;2022-09-24T15:18:34;1.95;;;1.70;;
17482;SDS011;8858;52.308;20.994;2022-09-24T15:21:03;14.55;;;12.90;;
17482;SDS011;8858;52.308;20.994;2022-09-24T15:23:34;3.03;;;2.38;;
17482;SDS011;8858;52.308;20.994;2022-09-24T15:26:03;3.38;;;1.63;;
17482;SDS011;8858;52.308;20.994;2022-09-24T15:28:33;1.80;;;1.70;;
17482;SDS011;8858;52.308;20.994;2022-09-24T15:31:04;2.60;;;1.60;;
17482;SDS011;8858;52.308;20.994;2022-09-24T15:33:42;1.70;;;1.60;;
17482;SDS011;8858;52.308;20.994;2022-09-24T15:36:46;2.75;;;1.85;;
17482;SDS011;8858;52.308;20.994;2022-09-24T15:39:17;1.80;;;1.67;;
17482;SDS011;8858;52.308;20.994;2022-09-24T15:41:48;3.05;;;1.73;;
17482;SDS011;8858;52.308;20.994;2022-09-24T15:44:19;1.90;;;1.80;;
17482;SDS011;8858;52.308;20.994;2022-09-24T15:46:53;2.30;;;1.90;;
17482;SDS011;8858;52.308;20.994;2022-09-24T15:49:23;2.43;;;1.80;;
17482;SDS011;8858;52.308;20.994;2022-09-24T15:51:54;3.05;;;2.33;;
17482;SDS011;8858;52.308;20.994;2022-09-24T15:54:26;2.40;;;2.20;;
17482;SDS011;8858;52.308;20.994;2022-09-24T15:56:54;2.60;;;2.40;;
17482;SDS011;8858;52.308;20.994;2022-09-24T15:59:22;3.13;;;1.90;;
17482;SDS011;8858;52.308;20.994;2022-09-24T16:01:50;2.10;;;1.90;;
17482;SDS011;8858;52.308;20.994;2022-09-24T16:04:21;2.10;;;2.00;;
17482;SDS011;8858;52.308;20.994;2022-09-24T16:06:53;2.40;;;2.20;;
17482;SDS011;8858;52.308;20.994;2022-09-24T16:09:21;3.27;;;2.03;;